Time;durP1;ratioP1;P1;durP2;ratioP2;P2;SDS_P1;SDS_P2;PMS_P1;PMS_P2;Temp;Humidity;BMP_temperature;BMP_pressure;BME280_temperature;BME280_humidity;BME280_pressure;Samples;Min_cycle;Max_cycle;Signal;HPM_P1;HPM_P2
2023/05/02 00:00:25;;;;;;;6.40;2.10;;;;;;;;;;5119778;28;20557;-69
2023/05/02 00:03:05;;;;;;;6.80;2.63;;;;;;;;;;5120539;28;20504;-69
2023/05/02 00:05:39;;;;;;;6.63;2.77;;;;;;;;;;5117695;28;20456;-69
2023/05/02 00:08:08;;;;;;;7.63;3.30;;;;;;;;;;5119289;28;20534;-70
2023/05/02 00:10:36;;;;;;;9.83;4.00;;;;;;;;;;5122230;28;20459;-69
2023/05/02 00:13:05;;;;;;;6.67;3.67;;;;;;;;;;5099579;28;20480;-70
2023/05/02 00:15:35;;;;;;;7.90;4.37;;;;;;;;;;5106395;28;20463;-70
2023/05/02 00:18:05;;;;;;;10.63;4.23;;;;;;;;;;5105763;28;20584;-69
2023/05/02 00:20:34;;;;;;;10.83;5.23;;;;;;;;;;5106063;28;20467;-69
2023/05/02 00:23:04;;;;;;;13.33;4.83;;;;;;;;;;5125269;28;20451;-70
2023/05/02 00:25:47;;;;;;;9.70;5.70;;;;;;;;;;5135042;27;20537;-70
2023/05/02 00:28:18;;;;;;;11.80;5.03;;;;;;;;;;5133399;27;20439;-71
2023/05/02 00:30:47;;;;;;;9.07;5.20;;;;;;;;;;5126762;28;20553;-70
2023/05/02 00:33:18;;;;;;;9.13;4.90;;;;;;;;;;5126127;28;20547;-69
2023/05/02 00:35:46;;;;;;;11.40;4.90;;;;;;;;;;5128425;28;20451;-70
2023/05/02 00:38:15;;;;;;;10.90;5.80;;;;;;;;;;5127075;28;20447;-70
2023/05/02 00:40:48;;;;;;;12.17;4.97;;;;;;;;;;5127159;28;20752;-70
2023/05/02 00:43:21;;;;;;;14.07;5.37;;;;;;;;;;5127901;28;20435;-70
2023/05/02 00:45:52;;;;;;;8.47;5.50;;;;;;;;;;5128879;28;20495;-69
2023/05/02 00:48:26;;;;;;;8.93;5.17;;;;;;;;;;5126837;27;20490;-69
2023/05/02 00:50:57;;;;;;;11.73;5.83;;;;;;;;;;5126462;28;20798;-70
2023/05/02 00:53:26;;;;;;;7.37;4.47;;;;;;;;;;5129433;28;20502;-70
2023/05/02 00:55:54;;;;;;;9.23;6.00;;;;;;;;;;5111258;28;20452;-70
2023/05/02 00:58:23;;;;;;;9.63;6.20;;;;;;;;;;5120661;28;20471;-69
2023/05/02 01:01:01;;;;;;;12.50;5.40;;;;;;;;;;5126670;28;20459;-69
2023/05/02 01:03:42;;;;;;;12.47;6.40;;;;;;;;;;5121796;28;20930;-70
2023/05/02 01:06:22;;;;;;;14.73;7.10;;;;;;;;;;5126063;28;20453;-69
2023/05/02 01:08:53;;;;;;;11.40;7.60;;;;;;;;;;5114227;27;20443;-69
2023/05/02 01:11:28;;;;;;;10.67;7.70;;;;;;;;;;5104100;28;20730;-69
2023/05/02 01:13:57;;;;;;;13.20;9.10;;;;;;;;;;5121306;28;20550;-70
2023/05/02 01:16:26;;;;;;;17.30;8.03;;;;;;;;;;5128924;28;20465;-69
2023/05/02 01:18:57;;;;;;;11.37;7.57;;;;;;;;;;5126545;28;20542;-71
2023/05/02 01:24:31;;;;;;;16.93;10.13;;;;;;;;;;5128820;27;20869;-70
2023/05/02 01:27:05;;;;;;;16.87;8.17;;;;;;;;;;5122622;27;20440;-72
2023/05/02 01:29:41;;;;;;;14.93;8.93;;;;;;;;;;5128135;27;20897;-70
2023/05/02 01:32:15;;;;;;;16.53;10.33;;;;;;;;;;5125963;28;20810;-73
2023/05/02 01:34:48;;;;;;;15.80;9.60;;;;;;;;;;5122800;28;20482;-68
2023/05/02 01:37:23;;;;;;;18.20;11.13;;;;;;;;;;5123366;28;20447;-70
2023/05/02 01:39:55;;;;;;;15.60;10.33;;;;;;;;;;5122984;28;20480;-70
2023/05/02 01:42:48;;;;;;;16.70;11.00;;;;;;;;;;5120542;28;20455;-71
2023/05/02 01:45:18;;;;;;;16.47;11.50;;;;;;;;;;5116843;28;20440;-71
2023/05/02 01:47:47;;;;;;;14.43;10.63;;;;;;;;;;5125541;28;20489;-71
2023/05/02 01:50:19;;;;;;;20.07;11.90;;;;;;;;;;5118606;28;20480;-70
2023/05/02 01:52:48;;;;;;;16.17;11.50;;;;;;;;;;5112322;28;20495;-70
2023/05/02 01:55:17;;;;;;;18.63;13.07;;;;;;;;;;5119328;28;20466;-70
2023/05/02 01:57:47;;;;;;;20.33;12.90;;;;;;;;;;5119472;28;20866;-70
2023/05/02 02:00:20;;;;;;;21.40;12.23;;;;;;;;;;5114883;28;20540;-70
2023/05/02 02:02:51;;;;;;;17.90;12.43;;;;;;;;;;5115920;28;20542;-70
2023/05/02 02:05:20;;;;;;;19.47;12.77;;;;;;;;;;5114488;28;20746;-71
2023/05/02 02:07:48;;;;;;;19.50;12.73;;;;;;;;;;5110382;28;20512;-70
2023/05/02 02:10:16;;;;;;;16.03;11.43;;;;;;;;;;5120064;28;20894;-71
2023/05/02 02:12:50;;;;;;;15.80;10.50;;;;;;;;;;5112392;27;20555;-70
2023/05/02 02:15:21;;;;;;;18.83;10.87;;;;;;;;;;5111346;28;20442;-71
2023/05/02 02:17:59;;;;;;;18.83;11.87;;;;;;;;;;5115919;28;20454;-70
2023/05/02 02:20:28;;;;;;;17.87;11.53;;;;;;;;;;5116588;28;20455;-70
2023/05/02 02:22:57;;;;;;;17.33;11.20;;;;;;;;;;5122412;28;20462;-72
2023/05/02 02:25:27;;;;;;;20.00;11.90;;;;;;;;;;5118946;28;20454;-69
2023/05/02 02:27:55;;;;;;;16.80;10.33;;;;;;;;;;5121930;28;20451;-70
2023/05/02 02:30:24;;;;;;;16.43;10.53;;;;;;;;;;5121297;28;20447;-70
2023/05/02 02:35:37;;;;;;;20.47;12.17;;;;;;;;;;5119356;28;20439;-69
2023/05/02 02:38:14;;;;;;;22.43;12.90;;;;;;;;;;5118518;28;20455;-70
2023/05/02 02:40:46;;;;;;;18.67;11.23;;;;;;;;;;5119263;28;20443;-70
2023/05/02 02:43:19;;;;;;;16.93;12.23;;;;;;;;;;5120734;28;20451;-70
2023/05/02 02:45:50;;;;;;;18.53;11.70;;;;;;;;;;5119678;28;20736;-70
2023/05/02 02:48:27;;;;;;;21.47;12.63;;;;;;;;;;5119370;28;20451;-69
2023/05/02 02:51:01;;;;;;;19.00;11.10;;;;;;;;;;5133803;27;20442;-70
2023/05/02 02:53:34;;;;;;;16.23;10.10;;;;;;;;;;5144485;27;20497;-70
2023/05/02 02:56:06;;;;;;;16.47;11.53;;;;;;;;;;5140677;27;20457;-69
2023/05/02 02:58:40;;;;;;;21.90;13.37;;;;;;;;;;5133929;27;20456;-70
2023/05/02 03:01:11;;;;;;;19.20;12.70;;;;;;;;;;5134752;27;20458;-70
2023/05/02 03:03:41;;;;;;;18.47;12.33;;;;;;;;;;5144226;27;20454;-71
2023/05/02 03:06:10;;;;;;;22.10;12.70;;;;;;;;;;5114336;27;20466;-70
2023/05/02 03:08:42;;;;;;;18.70;13.27;;;;;;;;;;5097848;28;20890;-72
2023/05/02 03:11:10;;;;;;;18.20;12.37;;;;;;;;;;5100274;28;20450;-70
2023/05/02 03:13:39;;;;;;;20.70;12.47;;;;;;;;;;5119979;28;20476;-70
2023/05/02 03:16:26;;;;;;;22.60;13.30;;;;;;;;;;5105402;27;20490;-70
2023/05/02 03:18:59;;;;;;;17.97;12.70;;;;;;;;;;5110262;28;20443;-71
2023/05/02 03:21:31;;;;;;;19.00;13.00;;;;;;;;;;5118390;28;20443;-70
2023/05/02 03:24:00;;;;;;;19.70;13.50;;;;;;;;;;5120959;28;20452;-70
2023/05/02 03:26:29;;;;;;;20.80;13.33;;;;;;;;;;5137320;27;20720;-71
2023/05/02 03:28:58;;;;;;;21.70;12.77;;;;;;;;;;5139575;27;20450;-70
2023/05/02 03:31:26;;;;;;;23.20;15.13;;;;;;;;;;5139298;27;20442;-70
2023/05/02 03:33:56;;;;;;;20.03;11.87;;;;;;;;;;5140655;27;20530;-70
2023/05/02 03:36:25;;;;;;;19.70;12.23;;;;;;;;;;5138303;27;20475;-71
2023/05/02 03:38:53;;;;;;;18.93;11.97;;;;;;;;;;5140561;27;20523;-71
2023/05/02 03:41:23;;;;;;;18.70;9.70;;;;;;;;;;5137925;27;20520;-69
2023/05/02 03:43:54;;;;;;;14.83;9.40;;;;;;;;;;5140841;27;20451;-70
2023/05/02 03:46:23;;;;;;;15.73;8.30;;;;;;;;;;5138371;27;20862;-69
2023/05/02 03:48:51;;;;;;;17.07;8.10;;;;;;;;;;5135160;27;20792;-70
2023/05/02 03:51:30;;;;;;;14.20;7.90;;;;;;;;;;5127424;27;20511;-69
2023/05/02 03:53:59;;;;;;;10.30;6.43;;;;;;;;;;5139020;27;20481;-69
2023/05/02 03:56:27;;;;;;;7.97;5.33;;;;;;;;;;5138672;27;20588;-71
2023/05/02 03:58:55;;;;;;;7.40;5.27;;;;;;;;;;5139018;27;20726;-70
2023/05/02 04:01:24;;;;;;;8.97;5.87;;;;;;;;;;5138635;27;20489;-69
2023/05/02 04:03:53;;;;;;;7.77;4.57;;;;;;;;;;5131740;27;20712;-71
2023/05/02 04:06:22;;;;;;;6.00;3.03;;;;;;;;;;5127612;27;20540;-70
2023/05/02 04:08:53;;;;;;;11.87;5.63;;;;;;;;;;5129586;27;20867;-70
2023/05/02 04:11:21;;;;;;;7.83;5.40;;;;;;;;;;5119250;28;20451;-71
2023/05/02 04:13:50;;;;;;;11.80;5.87;;;;;;;;;;5130134;28;20478;-70
2023/05/02 04:16:19;;;;;;;8.23;5.60;;;;;;;;;;5137960;28;20450;-70
2023/05/02 04:18:47;;;;;;;13.50;6.43;;;;;;;;;;5139063;28;20454;-70
2023/05/02 04:21:16;;;;;;;10.20;5.17;;;;;;;;;;5139961;28;20458;-71
2023/05/02 04:23:44;;;;;;;14.97;6.03;;;;;;;;;;5140402;28;20458;-70
2023/05/02 04:26:17;;;;;;;16.00;7.40;;;;;;;;;;5139164;28;20908;-71
2023/05/02 04:28:46;;;;;;;12.50;6.23;;;;;;;;;;5127086;28;20458;-70
2023/05/02 04:31:15;;;;;;;9.03;4.77;;;;;;;;;;5137474;28;20447;-69
2023/05/02 04:33:44;;;;;;;13.40;5.13;;;;;;;;;;5140527;28;20496;-71
2023/05/02 04:36:13;;;;;;;14.30;6.90;;;;;;;;;;5122423;28;20471;-70
2023/05/02 04:38:41;;;;;;;16.03;4.50;;;;;;;;;;5118579;28;20495;-70
2023/05/02 04:41:10;;;;;;;15.40;5.30;;;;;;;;;;5120555;28;20978;-69
2023/05/02 04:43:45;;;;;;;10.47;4.57;;;;;;;;;;5100705;28;20456;-70
2023/05/02 04:46:14;;;;;;;13.50;5.03;;;;;;;;;;5137608;28;20460;-70
2023/05/02 04:48:42;;;;;;;10.27;4.20;;;;;;;;;;5139233;28;20445;-69
2023/05/02 04:51:11;;;;;;;17.83;5.30;;;;;;;;;;5138355;28;20518;-70
2023/05/02 04:53:40;;;;;;;9.70;4.53;;;;;;;;;;5143016;28;20533;-70
2023/05/02 04:56:10;;;;;;;18.70;5.77;;;;;;;;;;5138480;28;20453;-70
2023/05/02 04:58:39;;;;;;;16.60;5.13;;;;;;;;;;5123141;28;20459;-69
2023/05/02 05:01:09;;;;;;;14.27;4.43;;;;;;;;;;5120264;28;20446;-69
2023/05/02 05:03:41;;;;;;;14.57;5.03;;;;;;;;;;5123850;28;20477;-69
2023/05/02 05:06:16;;;;;;;12.70;5.17;;;;;;;;;;5120648;28;20535;-70
2023/05/02 05:08:47;;;;;;;11.40;4.00;;;;;;;;;;5100167;28;20443;-68
2023/05/02 05:11:16;;;;;;;14.07;4.20;;;;;;;;;;5113410;27;20467;-69
2023/05/02 05:13:45;;;;;;;16.03;4.37;;;;;;;;;;5099358;28;20774;-69
2023/05/02 05:16:15;;;;;;;8.13;3.20;;;;;;;;;;5096945;28;20926;-69
2023/05/02 05:18:44;;;;;;;17.13;4.83;;;;;;;;;;5098702;28;20525;-69
2023/05/02 05:21:12;;;;;;;16.03;4.00;;;;;;;;;;5102258;28;20560;-70
2023/05/02 05:23:44;;;;;;;8.93;3.13;;;;;;;;;;5118872;28;20447;-70
2023/05/02 05:26:14;;;;;;;9.60;4.53;;;;;;;;;;5116405;28;20527;-69
2023/05/02 05:28:49;;;;;;;13.13;4.37;;;;;;;;;;5120183;28;20475;-70
2023/05/02 05:31:19;;;;;;;10.23;3.03;;;;;;;;;;5096724;28;20767;-69
2023/05/02 05:33:50;;;;;;;13.80;3.13;;;;;;;;;;5099253;28;20490;-70
2023/05/02 05:36:19;;;;;;;14.20;4.03;;;;;;;;;;5095681;28;20886;-71
2023/05/02 05:38:47;;;;;;;10.77;3.43;;;;;;;;;;5098336;28;20455;-69
2023/05/02 05:41:15;;;;;;;11.47;4.40;;;;;;;;;;5094639;28;21212;-70
2023/05/02 05:43:50;;;;;;;14.93;4.57;;;;;;;;;;5102318;28;20493;-70
2023/05/02 05:46:26;;;;;;;9.43;3.97;;;;;;;;;;5111348;28;20458;-69
2023/05/02 05:48:57;;;;;;;14.13;3.00;;;;;;;;;;5111689;28;20450;-72
2023/05/02 05:51:29;;;;;;;14.80;4.50;;;;;;;;;;5118069;28;20479;-70
2023/05/02 05:53:57;;;;;;;4.00;2.27;;;;;;;;;;5113724;28;20478;-70
2023/05/02 05:56:25;;;;;;;8.83;2.50;;;;;;;;;;5114866;28;20459;-70
2023/05/02 05:58:55;;;;;;;7.73;2.77;;;;;;;;;;5113219;28;20447;-70
2023/05/02 06:01:26;;;;;;;17.23;3.47;;;;;;;;;;5116561;28;20451;-71
2023/05/02 06:03:54;;;;;;;11.00;3.90;;;;;;;;;;5114860;28;20451;-71
2023/05/02 06:06:28;;;;;;;8.30;2.20;;;;;;;;;;5114785;28;20455;-70
2023/05/02 06:08:57;;;;;;;6.80;3.13;;;;;;;;;;5107814;28;20460;-70
2023/05/02 06:11:27;;;;;;;7.63;3.03;;;;;;;;;;5115593;28;20455;-70
2023/05/02 06:14:02;;;;;;;11.57;2.60;;;;;;;;;;5115939;28;20479;-71
2023/05/02 06:16:34;;;;;;;16.60;4.03;;;;;;;;;;5111176;28;20466;-70
2023/05/02 06:19:03;;;;;;;14.67;4.00;;;;;;;;;;5112605;28;20450;-70
2023/05/02 06:21:32;;;;;;;15.53;3.57;;;;;;;;;;5114624;28;20790;-71
2023/05/02 06:24:00;;;;;;;13.40;3.23;;;;;;;;;;5114135;28;20447;-72
2023/05/02 06:26:28;;;;;;;9.33;3.07;;;;;;;;;;5115942;28;20451;-70
2023/05/02 06:28:57;;;;;;;8.90;2.67;;;;;;;;;;5116459;28;20504;-69
2023/05/02 06:31:29;;;;;;;13.27;3.30;;;;;;;;;;5112334;28;20459;-69
2023/05/02 06:34:00;;;;;;;9.70;3.33;;;;;;;;;;5117206;28;20487;-69
2023/05/02 06:36:29;;;;;;;8.40;3.83;;;;;;;;;;5113724;28;20487;-70
2023/05/02 06:39:04;;;;;;;7.23;2.60;;;;;;;;;;5115218;28;20481;-69
2023/05/02 06:41:51;;;;;;;17.70;4.50;;;;;;;;;;5109320;28;20462;-69
2023/05/02 06:44:30;;;;;;;7.03;4.27;;;;;;;;;;5095393;28;20925;-68
2023/05/02 06:46:59;;;;;;;13.53;3.23;;;;;;;;;;5095683;28;20448;-69
2023/05/02 06:49:33;;;;;;;8.00;2.73;;;;;;;;;;5096175;28;20444;-68
2023/05/02 06:52:16;;;;;;;11.23;3.37;;;;;;;;;;5109644;28;20450;-69
2023/05/02 06:54:49;;;;;;;14.03;4.00;;;;;;;;;;5114884;28;20486;-69
2023/05/02 06:57:31;;;;;;;17.57;3.40;;;;;;;;;;5112990;28;20542;-68
2023/05/02 07:00:16;;;;;;;14.07;3.17;;;;;;;;;;5111746;28;20455;-70
2023/05/02 07:02:45;;;;;;;7.17;2.43;;;;;;;;;;5117916;28;20448;-68
2023/05/02 07:05:23;;;;;;;8.63;3.37;;;;;;;;;;5117997;28;20444;-69
2023/05/02 07:07:52;;;;;;;9.10;2.83;;;;;;;;;;5119363;28;20431;-69
2023/05/02 07:10:28;;;;;;;4.13;2.67;;;;;;;;;;5115769;28;20447;-68
2023/05/02 07:12:57;;;;;;;10.00;3.60;;;;;;;;;;5116736;28;20533;-70
2023/05/02 07:15:28;;;;;;;5.60;2.37;;;;;;;;;;5117181;28;20797;-70
2023/05/02 07:18:00;;;;;;;11.83;3.70;;;;;;;;;;5114271;28;20457;-69
2023/05/02 07:20:55;;;;;;;6.30;3.30;;;;;;;;;;5116342;28;20454;-69
2023/05/02 07:23:25;;;;;;;9.90;3.70;;;;;;;;;;5095575;28;20516;-69
2023/05/02 07:26:26;;;;;;;3.93;2.73;;;;;;;;;;5114310;28;20451;-68
2023/05/02 07:29:05;;;;;;;9.83;3.27;;;;;;;;;;5097026;28;20455;-68
2023/05/02 07:31:38;;;;;;;5.77;2.70;;;;;;;;;;5095507;28;20561;-69
2023/05/02 07:36:57;;;;;;;7.77;3.37;;;;;;;;;;5091346;28;21044;-69
2023/05/02 07:39:30;;;;;;;6.50;2.43;;;;;;;;;;5096384;28;20452;-69
2023/05/02 07:44:45;;;;;;;7.37;3.07;;;;;;;;;;5087473;28;20452;-69
2023/05/02 07:47:35;;;;;;;;;;;;;;;;;;;;;
2023/05/02 07:50:14;;;;;;;9.97;3.80;;;;;;;;;;5095668;28;20570;-69
2023/05/02 07:53:12;;;;;;;10.40;3.23;;;;;;;;;;5102101;28;20974;-69
2023/05/02 07:55:53;;;;;;;6.60;2.37;;;;;;;;;;5116921;28;20528;-69
2023/05/02 07:58:23;;;;;;;6.13;2.57;;;;;;;;;;5116363;28;20435;-69
2023/05/02 08:00:53;;;;;;;7.60;2.60;;;;;;;;;;5118563;28;20451;-67
2023/05/02 08:03:24;;;;;;;6.23;2.50;;;;;;;;;;5117159;28;20522;-69
2023/05/02 08:05:57;;;;;;;7.73;3.00;;;;;;;;;;5115719;28;20451;-69
2023/05/02 08:08:29;;;;;;;5.40;2.63;;;;;;;;;;5114633;28;20447;-67
2023/05/02 08:11:03;;;;;;;8.77;2.60;;;;;;;;;;5114675;28;20530;-69
2023/05/02 08:13:34;;;;;;;5.13;2.53;;;;;;;;;;5112690;28;20528;-68
2023/05/02 08:16:03;;;;;;;9.03;3.63;;;;;;;;;;5112416;28;20487;-67
2023/05/02 08:18:37;;;;;;;5.83;2.10;;;;;;;;;;5110868;28;20455;-69
2023/05/02 08:21:33;;;;;;;4.70;2.47;;;;;;;;;;5114119;28;20855;-68
2023/05/02 08:24:15;;;;;;;4.73;1.97;;;;;;;;;;5116634;28;20458;-68
2023/05/02 08:26:49;;;;;;;5.13;1.83;;;;;;;;;;5111419;28;20470;-68
2023/05/02 08:29:27;;;;;;;7.90;2.43;;;;;;;;;;5096907;28;20758;-69
2023/05/02 08:32:14;;;;;;;4.03;1.87;;;;;;;;;;5115730;28;20538;-68
2023/05/02 08:34:49;;;;;;;5.57;2.10;;;;;;;;;;5117581;28;20750;-69
2023/05/02 08:40:15;;;;;;;2.30;1.20;;;;;;;;;;5076738;28;20550;-69
2023/05/02 08:42:50;;;;;;;5.90;1.60;;;;;;;;;;5118188;28;20455;-70
2023/05/02 08:45:26;;;;;;;2.77;1.40;;;;;;;;;;5118848;28;20446;-69
2023/05/02 08:47:58;;;;;;;2.77;1.53;;;;;;;;;;5115763;28;20468;-69
2023/05/02 08:50:26;;;;;;;6.47;1.77;;;;;;;;;;5116324;28;20634;-69
2023/05/02 08:52:55;;;;;;;5.67;1.73;;;;;;;;;;5111016;28;20440;-68
2023/05/02 08:55:28;;;;;;;6.50;1.30;;;;;;;;;;5113455;28;20594;-69
2023/05/02 08:58:08;;;;;;;3.50;2.00;;;;;;;;;;5109667;28;20456;-68
2023/05/02 09:00:42;;;;;;;12.30;2.20;;;;;;;;;;5103239;28;20528;-68
2023/05/02 09:03:17;;;;;;;13.33;3.57;;;;;;;;;;5096827;28;21171;-69
2023/05/02 09:05:50;;;;;;;1.97;1.20;;;;;;;;;;5094973;28;20855;-68
2023/05/02 09:08:27;;;;;;;12.23;2.13;;;;;;;;;;5095883;28;21058;-68
2023/05/02 09:11:01;;;;;;;5.50;1.40;;;;;;;;;;5095934;28;21036;-69
2023/05/02 09:13:34;;;;;;;5.93;1.57;;;;;;;;;;5099089;28;20448;-69
2023/05/02 09:16:03;;;;;;;2.60;1.60;;;;;;;;;;5095746;28;20494;-68
2023/05/02 09:18:32;;;;;;;8.03;2.27;;;;;;;;;;5096495;28;20454;-69
2023/05/02 09:21:07;;;;;;;4.43;2.43;;;;;;;;;;5094790;28;20863;-69
2023/05/02 09:23:40;;;;;;;3.67;1.60;;;;;;;;;;5102156;28;20499;-69
2023/05/02 09:26:17;;;;;;;3.40;1.90;;;;;;;;;;5115145;28;20698;-69
2023/05/02 09:28:52;;;;;;;4.77;1.70;;;;;;;;;;5111303;28;20562;-68
2023/05/02 09:31:29;;;;;;;3.77;2.40;;;;;;;;;;5090846;28;20559;-69
2023/05/02 09:34:05;;;;;;;4.33;1.73;;;;;;;;;;5097767;28;20452;-69
2023/05/02 09:36:52;;;;;;;;;;;;;;;;;;;;;
2023/05/02 09:39:38;;;;;;;6.33;2.90;;;;;;;;;;5096405;28;20555;-70
2023/05/02 09:42:36;;;;;;;5.30;1.57;;;;;;;;;;5094590;28;20903;-68
2023/05/02 09:45:09;;;;;;;6.27;1.87;;;;;;;;;;5077581;28;20459;-70
2023/05/02 09:47:43;;;;;;;13.70;2.50;;;;;;;;;;5111340;28;20769;-69
2023/05/02 09:50:12;;;;;;;7.07;2.20;;;;;;;;;;5116338;28;20768;-68
2023/05/02 09:53:11;;;;;;;4.90;1.90;;;;;;;;;;5116030;28;20496;-70
2023/05/02 09:55:40;;;;;;;4.10;1.60;;;;;;;;;;5115328;28;20479;-67
2023/05/02 09:58:26;;;;;;;3.57;1.17;;;;;;;;;;5113864;28;20477;-71
2023/05/02 10:01:30;;;;;;;3.30;1.40;;;;;;;;;;5114115;28;20431;-69
2023/05/02 10:04:05;;;;;;;9.90;2.37;;;;;;;;;;5095408;28;20749;-69
2023/05/02 10:07:05;;;;;;;5.30;2.00;;;;;;;;;;5109609;28;20528;-68
2023/05/02 10:09:38;;;;;;;7.07;3.17;;;;;;;;;;5088179;27;20444;-69
2023/05/02 10:12:24;;;;;;;7.10;2.20;;;;;;;;;;5114264;28;20499;-68
2023/05/02 10:15:07;;;;;;;7.27;1.70;;;;;;;;;;5100613;28;20964;-69
2023/05/02 10:17:58;;;;;;;5.97;1.60;;;;;;;;;;5104352;27;21216;-70
2023/05/02 10:20:40;;;;;;;11.70;2.90;;;;;;;;;;5097901;28;20562;-70
2023/05/02 10:23:24;;;;;;;3.57;1.23;;;;;;;;;;5096762;28;20500;-69
2023/05/02 10:25:56;;;;;;;8.10;2.97;;;;;;;;;;5102334;28;21261;-70
2023/05/02 10:31:22;;;;;;;4.33;1.80;;;;;;;;;;5091679;28;20472;-72
2023/05/02 10:33:59;;;;;;;3.83;2.03;;;;;;;;;;5103989;28;20470;-70
2023/05/02 10:39:35;;;;;;;4.23;1.20;;;;;;;;;;5081112;28;20439;-69
2023/05/02 10:42:17;;;;;;;3.50;1.40;;;;;;;;;;5109663;28;20448;-70
2023/05/02 10:44:53;;;;;;;2.00;1.13;;;;;;;;;;5117253;27;20782;-69
2023/05/02 10:47:36;;;;;;;5.67;3.40;;;;;;;;;;5128866;27;20612;-70
2023/05/02 10:51:00;;;;;;;5.13;1.53;;;;;;;;;;5107438;27;20514;-69
2023/05/02 10:53:42;;;;;;;5.07;1.67;;;;;;;;;;5100777;28;20530;-70
2023/05/02 10:59:26;;;;;;;4.70;1.40;;;;;;;;;;5122775;27;20454;-70
2023/05/02 11:02:02;;;;;;;2.63;1.50;;;;;;;;;;5115103;28;20484;-70
2023/05/02 11:04:54;;;;;;;5.00;1.90;;;;;;;;;;5111787;28;20451;-71
2023/05/02 11:07:23;;;;;;;7.20;1.80;;;;;;;;;;5113497;28;20553;-70
2023/05/02 11:10:16;;;;;;;4.20;1.60;;;;;;;;;;5103015;28;20520;-69
2023/05/02 11:12:53;;;;;;;4.40;1.20;;;;;;;;;;5098563;28;20554;-69
2023/05/02 11:15:37;;;;;;;2.60;1.20;;;;;;;;;;5126894;27;20493;-69
2023/05/02 11:18:19;;;;;;;4.20;1.57;;;;;;;;;;5128645;27;20802;-69
2023/05/02 11:21:04;;;;;;;4.13;1.10;;;;;;;;;;5095054;28;20463;-69
2023/05/02 11:23:42;;;;;;;5.30;1.20;;;;;;;;;;5093365;28;21134;-70
2023/05/02 11:26:41;;;;;;;4.33;1.37;;;;;;;;;;5103265;28;20516;-69
2023/05/02 11:29:45;;;;;;;5.43;1.80;;;;;;;;;;5114395;28;20455;-69
2023/05/02 11:32:14;;;;;;;3.23;1.20;;;;;;;;;;5088091;28;20883;-69
2023/05/02 11:34:46;;;;;;;4.70;1.07;;;;;;;;;;5114562;28;20455;-69
2023/05/02 11:37:16;;;;;;;3.17;1.27;;;;;;;;;;5112941;28;20484;-69
2023/05/02 11:42:37;;;;;;;3.30;1.20;;;;;;;;;;5130433;27;20446;-69
2023/05/02 11:45:06;;;;;;;6.50;1.37;;;;;;;;;;5133941;27;20517;-69
2023/05/02 11:47:36;;;;;;;7.13;1.23;;;;;;;;;;5131335;27;20489;-69
2023/05/02 11:50:09;;;;;;;8.23;1.30;;;;;;;;;;5129656;27;20455;-68
2023/05/02 11:52:40;;;;;;;3.10;1.30;;;;;;;;;;5109734;28;20477;-69
2023/05/02 11:55:11;;;;;;;5.10;1.80;;;;;;;;;;5107270;28;20502;-68
2023/05/02 11:57:42;;;;;;;4.53;1.43;;;;;;;;;;5108291;28;20683;-73
2023/05/02 12:02:55;;;;;;;2.10;0.80;;;;;;;;;;5113994;28;20438;-68
2023/05/02 12:05:30;;;;;;;4.20;1.30;;;;;;;;;;5111881;28;20499;-68
2023/05/02 12:08:00;;;;;;;4.00;1.80;;;;;;;;;;5111002;28;21253;-68
2023/05/02 12:10:37;;;;;;;3.80;1.43;;;;;;;;;;5108755;28;20442;-69
2023/05/02 12:13:07;;;;;;;4.20;1.53;;;;;;;;;;5110576;28;20466;-68
2023/05/02 12:16:03;;;;;;;3.43;1.13;;;;;;;;;;5109972;28;20535;-73
2023/05/02 12:18:35;;;;;;;2.73;1.10;;;;;;;;;;5108530;28;20496;-68
2023/05/02 12:21:05;;;;;;;3.90;1.27;;;;;;;;;;5107190;28;20677;-70
2023/05/02 12:23:36;;;;;;;4.90;1.30;;;;;;;;;;5108855;28;20465;-69
2023/05/02 12:26:21;;;;;;;6.93;1.57;;;;;;;;;;5110912;28;20451;-69
2023/05/02 12:28:53;;;;;;;2.30;1.00;;;;;;;;;;5121608;28;20438;-69
2023/05/02 12:31:39;;;;;;;3.07;1.33;;;;;;;;;;5130870;28;20438;-69
2023/05/02 12:34:08;;;;;;;2.63;0.90;;;;;;;;;;5131177;28;20430;-69
2023/05/02 12:36:39;;;;;;;5.60;2.30;;;;;;;;;;5115776;28;20687;-69
2023/05/02 12:39:17;;;;;;;2.90;1.10;;;;;;;;;;5103786;28;20460;-70
2023/05/02 12:42:18;;;;;;;3.07;1.00;;;;;;;;;;5098526;28;20459;-68
2023/05/02 12:44:55;;;;;;;3.60;1.30;;;;;;;;;;5112743;28;20515;-70
2023/05/02 12:47:25;;;;;;;1.93;0.90;;;;;;;;;;5104479;28;20495;-68
2023/05/02 12:50:00;;;;;;;4.30;1.07;;;;;;;;;;5113824;28;20487;-69
2023/05/02 12:52:47;;;;;;;2.53;0.90;;;;;;;;;;5112409;28;20500;-71
2023/05/02 12:55:26;;;;;;;7.03;2.03;;;;;;;;;;5111931;28;20488;-70
2023/05/02 12:58:05;;;;;;;2.90;1.60;;;;;;;;;;5112945;28;20882;-68
2023/05/02 13:00:37;;;;;;;4.80;0.90;;;;;;;;;;5114109;28;20454;-69
2023/05/02 13:03:07;;;;;;;2.17;1.00;;;;;;;;;;5115606;28;20451;-69
2023/05/02 13:05:38;;;;;;;4.17;1.23;;;;;;;;;;5112863;28;20474;-69
2023/05/02 13:08:24;;;;;;;3.67;1.00;;;;;;;;;;5115804;28;20499;-69
2023/05/02 13:11:23;;;;;;;6.30;1.10;;;;;;;;;;5121493;28;20554;-70
2023/05/02 13:14:00;;;;;;;3.10;1.03;;;;;;;;;;5115038;28;20455;-69
2023/05/02 13:16:46;;;;;;;6.47;1.07;;;;;;;;;;5106060;28;20509;-69
2023/05/02 13:19:29;;;;;;;5.60;1.27;;;;;;;;;;5113498;28;20489;-69
2023/05/02 13:22:25;;;;;;;;;;;;;;;;;;;;;
2023/05/02 13:25:08;;;;;;;5.10;1.80;;;;;;;;;;5104747;28;20995;-70
2023/05/02 13:27:44;;;;;;;6.50;1.87;;;;;;;;;;5113461;28;20455;-69
2023/05/02 13:30:28;;;;;;;1.87;0.83;;;;;;;;;;5109957;27;20455;-69
2023/05/02 13:33:02;;;;;;;4.83;1.03;;;;;;;;;;5118144;28;20459;-69
2023/05/02 13:35:35;;;;;;;2.23;1.13;;;;;;;;;;5111868;28;20472;-69
2023/05/02 13:38:04;;;;;;;3.70;1.00;;;;;;;;;;5111304;28;20464;-69
2023/05/02 13:40:38;;;;;;;4.70;1.60;;;;;;;;;;5106446;27;20486;-69
2023/05/02 13:43:13;;;;;;;3.10;0.90;;;;;;;;;;5111444;27;20464;-70
2023/05/02 13:46:06;;;;;;;3.90;1.50;;;;;;;;;;5110030;28;20554;-70
2023/05/02 13:48:48;;;;;;;3.87;1.23;;;;;;;;;;5115464;28;20497;-70
2023/05/02 13:54:11;;;;;;;2.37;1.17;;;;;;;;;;5109647;28;20456;-69
2023/05/02 13:56:54;;;;;;;4.97;1.20;;;;;;;;;;5091776;28;20544;-70
2023/05/02 13:59:29;;;;;;;6.00;1.10;;;;;;;;;;5114531;28;20491;-69
2023/05/02 14:02:00;;;;;;;1.70;0.70;;;;;;;;;;5100095;27;20456;-70
2023/05/02 14:04:33;;;;;;;3.33;1.00;;;;;;;;;;5108012;27;20505;-70
2023/05/02 14:07:05;;;;;;;3.70;1.00;;;;;;;;;;5109705;27;20466;-69
2023/05/02 14:09:33;;;;;;;2.33;1.10;;;;;;;;;;5110126;27;20472;-69
2023/05/02 14:12:32;;;;;;;1.90;0.90;;;;;;;;;;5132017;27;20515;-69
2023/05/02 14:15:02;;;;;;;3.90;1.10;;;;;;;;;;5108250;28;20467;-70
2023/05/02 14:17:31;;;;;;;3.43;1.63;;;;;;;;;;5114519;28;20479;-70
2023/05/02 14:20:01;;;;;;;2.70;0.83;;;;;;;;;;5115785;27;20822;-69
2023/05/02 14:22:45;;;;;;;4.03;1.47;;;;;;;;;;5127204;27;20451;-69
2023/05/02 14:25:18;;;;;;;6.90;1.83;;;;;;;;;;5113265;28;20902;-69
2023/05/02 14:27:50;;;;;;;5.70;2.70;;;;;;;;;;5094034;28;20447;-69
2023/05/02 14:30:39;;;;;;;3.30;0.90;;;;;;;;;;5114233;28;20530;-70
2023/05/02 14:33:08;;;;;;;5.60;1.20;;;;;;;;;;5082742;28;20459;-69
2023/05/02 14:35:42;;;;;;;3.47;1.00;;;;;;;;;;5111218;28;20458;-68
2023/05/02 14:38:14;;;;;;;14.23;3.07;;;;;;;;;;5105684;28;20586;-69
2023/05/02 14:40:47;;;;;;;6.87;1.40;;;;;;;;;;5114949;28;20965;-68
2023/05/02 14:43:18;;;;;;;3.63;1.13;;;;;;;;;;5115826;27;20455;-70
2023/05/02 14:45:48;;;;;;;2.77;0.90;;;;;;;;;;5120093;27;20465;-69
2023/05/02 14:48:28;;;;;;;8.53;1.47;;;;;;;;;;5113426;28;20568;-69
2023/05/02 14:51:06;;;;;;;5.10;1.30;;;;;;;;;;5111634;28;20463;-70
2023/05/02 14:53:53;;;;;;;3.20;1.20;;;;;;;;;;5116314;28;20532;-70
2023/05/02 14:56:29;;;;;;;6.00;1.70;;;;;;;;;;5099259;28;20533;-69
2023/05/02 15:02:13;;;;;;;3.67;1.30;;;;;;;;;;5075924;28;20519;-70
2023/05/02 15:05:06;;;;;;;2.70;1.03;;;;;;;;;;5099892;28;20452;-68
2023/05/02 15:07:51;;;;;;;4.23;1.40;;;;;;;;;;5104735;28;20439;-73
2023/05/02 15:10:28;;;;;;;4.10;1.33;;;;;;;;;;5102225;28;20811;-69
2023/05/02 15:12:57;;;;;;;2.90;1.13;;;;;;;;;;5125683;27;20904;-69
2023/05/02 15:15:27;;;;;;;4.63;1.10;;;;;;;;;;5096738;28;20460;-69
2023/05/02 15:17:56;;;;;;;6.83;1.97;;;;;;;;;;5103573;28;20945;-70
2023/05/02 15:20:30;;;;;;;5.57;1.30;;;;;;;;;;5099295;28;20859;-70
2023/05/02 15:23:04;;;;;;;3.47;1.40;;;;;;;;;;5103638;28;20463;-70
2023/05/02 15:25:59;;;;;;;2.13;1.00;;;;;;;;;;5112076;28;20470;-70
2023/05/02 15:28:48;;;;;;;7.33;3.23;;;;;;;;;;5113262;28;20447;-70
2023/05/02 15:31:18;;;;;;;3.30;1.17;;;;;;;;;;5102650;28;20451;-70
2023/05/02 15:33:52;;;;;;;4.27;2.30;;;;;;;;;;5117562;27;20457;-70
2023/05/02 15:39:30;;;;;;;2.20;1.00;;;;;;;;;;5109567;28;20451;-68
2023/05/02 15:42:19;;;;;;;5.80;1.50;;;;;;;;;;5126815;27;20442;-69
2023/05/02 15:44:49;;;;;;;6.83;1.80;;;;;;;;;;5116657;27;20815;-68
2023/05/02 15:47:24;;;;;;;3.27;1.23;;;;;;;;;;5126853;27;20450;-69
2023/05/02 15:49:57;;;;;;;3.30;1.03;;;;;;;;;;5117580;28;20477;-70
2023/05/02 15:52:29;;;;;;;2.53;1.27;;;;;;;;;;5113251;28;20443;-72
2023/05/02 15:55:00;;;;;;;1.93;1.23;;;;;;;;;;5114435;28;20629;-69
2023/05/02 15:57:32;;;;;;;5.10;1.13;;;;;;;;;;5112830;28;21187;-70
2023/05/02 16:00:15;;;;;;;2.83;1.30;;;;;;;;;;5114796;28;20939;-68